sensor_id;sensor_type;location;lat;lon;timestamp;temperature;humidity
72814;DHT22;60945;48.516;-2.768;2023-12-20T00:00:57;9.60;70.80
72814;DHT22;60945;48.516;-2.768;2023-12-20T00:03:23;9.50;71.80
72814;DHT22;60945;48.516;-2.768;2023-12-20T00:05:49;9.30;72.60
72814;DHT22;60945;48.516;-2.768;2023-12-20T00:08:15;9.10;73.10
72814;DHT22;60945;48.516;-2.768;2023-12-20T00:10:41;9.00;73.40
72814;DHT22;60945;48.516;-2.768;2023-12-20T00:13:07;8.90;74.10
72814;DHT22;60945;48.516;-2.768;2023-12-20T00:15:33;8.90;73.50
72814;DHT22;60945;48.516;-2.768;2023-12-20T00:17:59;8.70;74.80
72814;DHT22;60945;48.516;-2.768;2023-12-20T00:20:25;8.70;74.90
72814;DHT22;60945;48.516;-2.768;2023-12-20T00:22:50;8.70;74.60
72814;DHT22;60945;48.516;-2.768;2023-12-20T00:25:16;8.60;74.60
72814;DHT22;60945;48.516;-2.768;2023-12-20T00:27:41;8.70;74.90
72814;DHT22;60945;48.516;-2.768;2023-12-20T00:30:08;8.60;75.00
72814;DHT22;60945;48.516;-2.768;2023-12-20T00:32:35;8.50;75.00
72814;DHT22;60945;48.516;-2.768;2023-12-20T00:35:01;8.50;75.30
72814;DHT22;60945;48.516;-2.768;2023-12-20T00:37:27;8.50;75.30
72814;DHT22;60945;48.516;-2.768;2023-12-20T00:39:52;8.70;74.80
72814;DHT22;60945;48.516;-2.768;2023-12-20T00:42:18;8.80;74.30
72814;DHT22;60945;48.516;-2.768;2023-12-20T00:44:44;8.90;74.10
72814;DHT22;60945;48.516;-2.768;2023-12-20T00:47:10;9.00;73.80
72814;DHT22;60945;48.516;-2.768;2023-12-20T00:49:35;9.10;72.90
72814;DHT22;60945;48.516;-2.768;2023-12-20T00:52:01;9.00;72.90
72814;DHT22;60945;48.516;-2.768;2023-12-20T00:54:27;8.90;73.40
72814;DHT22;60945;48.516;-2.768;2023-12-20T00:56:52;8.80;73.80
72814;DHT22;60945;48.516;-2.768;2023-12-20T00:59:18;8.70;73.90
72814;DHT22;60945;48.516;-2.768;2023-12-20T01:01:44;8.70;74.40
72814;DHT22;60945;48.516;-2.768;2023-12-20T01:04:10;8.60;74.50
72814;DHT22;60945;48.516;-2.768;2023-12-20T01:06:36;8.50;74.60
72814;DHT22;60945;48.516;-2.768;2023-12-20T01:09:01;8.50;74.80
72814;DHT22;60945;48.516;-2.768;2023-12-20T01:11:27;8.40;74.80
72814;DHT22;60945;48.516;-2.768;2023-12-20T01:13:53;8.40;75.30
72814;DHT22;60945;48.516;-2.768;2023-12-20T01:16:18;8.40;75.70
72814;DHT22;60945;48.516;-2.768;2023-12-20T01:18:44;8.50;75.80
72814;DHT22;60945;48.516;-2.768;2023-12-20T01:21:10;8.80;75.00
72814;DHT22;60945;48.516;-2.768;2023-12-20T01:23:36;8.90;74.60
72814;DHT22;60945;48.516;-2.768;2023-12-20T01:26:01;9.00;75.00
72814;DHT22;60945;48.516;-2.768;2023-12-20T01:28:28;9.10;74.60
72814;DHT22;60945;48.516;-2.768;2023-12-20T01:30:53;9.10;74.10
72814;DHT22;60945;48.516;-2.768;2023-12-20T01:33:19;9.20;74.40
72814;DHT22;60945;48.516;-2.768;2023-12-20T01:35:45;9.30;74.30
72814;DHT22;60945;48.516;-2.768;2023-12-20T01:38:10;9.40;73.50
72814;DHT22;60945;48.516;-2.768;2023-12-20T01:40:36;9.40;73.80
72814;DHT22;60945;48.516;-2.768;2023-12-20T01:43:06;9.30;74.30
72814;DHT22;60945;48.516;-2.768;2023-12-20T01:45:33;9.10;75.50
72814;DHT22;60945;48.516;-2.768;2023-12-20T01:47:59;9.10;75.90
72814;DHT22;60945;48.516;-2.768;2023-12-20T01:50:28;9.10;76.50
72814;DHT22;60945;48.516;-2.768;2023-12-20T01:52:55;9.00;77.20
72814;DHT22;60945;48.516;-2.768;2023-12-20T01:55:23;9.10;77.60
72814;DHT22;60945;48.516;-2.768;2023-12-20T01:57:50;9.00;77.80
72814;DHT22;60945;48.516;-2.768;2023-12-20T02:00:16;8.90;78.60
72814;DHT22;60945;48.516;-2.768;2023-12-20T02:02:44;8.90;78.60
72814;DHT22;60945;48.516;-2.768;2023-12-20T02:05:11;8.80;79.50
72814;DHT22;60945;48.516;-2.768;2023-12-20T02:07:37;8.80;79.60
72814;DHT22;60945;48.516;-2.768;2023-12-20T02:10:03;8.60;80.00
72814;DHT22;60945;48.516;-2.768;2023-12-20T02:12:31;8.60;80.70
72814;DHT22;60945;48.516;-2.768;2023-12-20T02:14:57;8.60;80.80
72814;DHT22;60945;48.516;-2.768;2023-12-20T02:17:23;8.50;81.30
72814;DHT22;60945;48.516;-2.768;2023-12-20T02:19:49;8.50;81.70
72814;DHT22;60945;48.516;-2.768;2023-12-20T02:22:15;8.40;82.00
72814;DHT22;60945;48.516;-2.768;2023-12-20T02:24:41;8.40;82.30
72814;DHT22;60945;48.516;-2.768;2023-12-20T02:27:07;8.30;82.90
72814;DHT22;60945;48.516;-2.768;2023-12-20T02:29:33;8.30;83.30
72814;DHT22;60945;48.516;-2.768;2023-12-20T02:31:59;8.30;82.90
72814;DHT22;60945;48.516;-2.768;2023-12-20T02:34:25;8.20;83.40
72814;DHT22;60945;48.516;-2.768;2023-12-20T02:36:51;8.30;83.50
72814;DHT22;60945;48.516;-2.768;2023-12-20T02:39:16;8.50;83.20
72814;DHT22;60945;48.516;-2.768;2023-12-20T02:41:42;8.80;82.20
72814;DHT22;60945;48.516;-2.768;2023-12-20T02:44:08;8.90;81.90
72814;DHT22;60945;48.516;-2.768;2023-12-20T02:46:33;8.90;81.00
72814;DHT22;60945;48.516;-2.768;2023-12-20T02:48:59;8.90;81.20
72814;DHT22;60945;48.516;-2.768;2023-12-20T02:51:24;8.70;81.20
72814;DHT22;60945;48.516;-2.768;2023-12-20T02:53:50;8.60;81.90
72814;DHT22;60945;48.516;-2.768;2023-12-20T02:56:16;8.60;82.60
72814;DHT22;60945;48.516;-2.768;2023-12-20T02:58:41;8.50;83.20
72814;DHT22;60945;48.516;-2.768;2023-12-20T03:01:07;8.40;83.80
72814;DHT22;60945;48.516;-2.768;2023-12-20T03:03:33;8.50;84.10
72814;DHT22;60945;48.516;-2.768;2023-12-20T03:06:00;8.40;83.80
72814;DHT22;60945;48.516;-2.768;2023-12-20T03:08:25;8.40;84.10
72814;DHT22;60945;48.516;-2.768;2023-12-20T03:10:51;8.30;84.00
72814;DHT22;60945;48.516;-2.768;2023-12-20T03:13:17;8.20;84.40
72814;DHT22;60945;48.516;-2.768;2023-12-20T03:15:42;8.10;84.40
72814;DHT22;60945;48.516;-2.768;2023-12-20T03:18:08;8.10;84.60
72814;DHT22;60945;48.516;-2.768;2023-12-20T03:20:33;8.10;85.00
72814;DHT22;60945;48.516;-2.768;2023-12-20T03:23:00;8.00;85.30
72814;DHT22;60945;48.516;-2.768;2023-12-20T03:25:26;8.00;85.50
72814;DHT22;60945;48.516;-2.768;2023-12-20T03:27:52;8.00;85.30
72814;DHT22;60945;48.516;-2.768;2023-12-20T03:30:18;7.80;86.00
72814;DHT22;60945;48.516;-2.768;2023-12-20T03:32:44;7.80;87.10
72814;DHT22;60945;48.516;-2.768;2023-12-20T03:35:10;7.80;87.20
72814;DHT22;60945;48.516;-2.768;2023-12-20T03:37:36;7.90;87.60
72814;DHT22;60945;48.516;-2.768;2023-12-20T03:40:02;8.10;87.20
72814;DHT22;60945;48.516;-2.768;2023-12-20T03:42:27;8.20;86.30
72814;DHT22;60945;48.516;-2.768;2023-12-20T03:44:53;8.20;86.50
72814;DHT22;60945;48.516;-2.768;2023-12-20T03:47:18;8.10;86.60
72814;DHT22;60945;48.516;-2.768;2023-12-20T03:49:44;8.10;86.90
72814;DHT22;60945;48.516;-2.768;2023-12-20T03:52:10;8.10;87.00
72814;DHT22;60945;48.516;-2.768;2023-12-20T03:54:36;8.10;87.00
72814;DHT22;60945;48.516;-2.768;2023-12-20T03:57:01;8.00;87.00
72814;DHT22;60945;48.516;-2.768;2023-12-20T03:59:27;8.00;87.00
72814;DHT22;60945;48.516;-2.768;2023-12-20T04:01:52;7.90;86.80
72814;DHT22;60945;48.516;-2.768;2023-12-20T04:04:19;7.90;87.10
72814;DHT22;60945;48.516;-2.768;2023-12-20T04:06:44;7.80;87.40
72814;DHT22;60945;48.516;-2.768;2023-12-20T04:09:10;7.90;87.40
72814;DHT22;60945;48.516;-2.768;2023-12-20T04:11:36;7.90;87.20
72814;DHT22;60945;48.516;-2.768;2023-12-20T04:14:02;7.90;86.90
72814;DHT22;60945;48.516;-2.768;2023-12-20T04:16:27;7.90;87.20
72814;DHT22;60945;48.516;-2.768;2023-12-20T04:18:53;7.80;87.20
72814;DHT22;60945;48.516;-2.768;2023-12-20T04:21:19;7.90;87.30
72814;DHT22;60945;48.516;-2.768;2023-12-20T04:23:45;7.80;87.10
72814;DHT22;60945;48.516;-2.768;2023-12-20T04:26:10;7.80;87.10
72814;DHT22;60945;48.516;-2.768;2023-12-20T04:28:36;7.80;87.10
72814;DHT22;60945;48.516;-2.768;2023-12-20T04:31:01;7.80;87.00
72814;DHT22;60945;48.516;-2.768;2023-12-20T04:33:27;7.70;87.20
72814;DHT22;60945;48.516;-2.768;2023-12-20T04:35:53;7.70;87.00
72814;DHT22;60945;48.516;-2.768;2023-12-20T04:38:18;7.80;86.90
72814;DHT22;60945;48.516;-2.768;2023-12-20T04:40:44;7.70;86.60
72814;DHT22;60945;48.516;-2.768;2023-12-20T04:43:10;7.70;86.90
72814;DHT22;60945;48.516;-2.768;2023-12-20T04:45:35;7.80;86.70
72814;DHT22;60945;48.516;-2.768;2023-12-20T04:48:02;7.70;86.60
72814;DHT22;60945;48.516;-2.768;2023-12-20T04:50:28;7.60;86.80
72814;DHT22;60945;48.516;-2.768;2023-12-20T04:52:54;7.70;86.70
72814;DHT22;60945;48.516;-2.768;2023-12-20T04:55:19;7.70;86.50
72814;DHT22;60945;48.516;-2.768;2023-12-20T04:57:45;7.70;86.20
72814;DHT22;60945;48.516;-2.768;2023-12-20T05:00:11;7.70;86.30
72814;DHT22;60945;48.516;-2.768;2023-12-20T05:02:37;7.70;85.90
72814;DHT22;60945;48.516;-2.768;2023-12-20T05:05:03;7.70;85.80
72814;DHT22;60945;48.516;-2.768;2023-12-20T05:07:29;7.70;85.60
72814;DHT22;60945;48.516;-2.768;2023-12-20T05:09:54;7.80;85.40
72814;DHT22;60945;48.516;-2.768;2023-12-20T05:12:20;7.60;85.20
72814;DHT22;60945;48.516;-2.768;2023-12-20T05:14:46;7.60;85.70
72814;DHT22;60945;48.516;-2.768;2023-12-20T05:17:12;7.80;85.30
72814;DHT22;60945;48.516;-2.768;2023-12-20T05:19:37;8.00;84.70
72814;DHT22;60945;48.516;-2.768;2023-12-20T05:22:03;8.20;83.70
72814;DHT22;60945;48.516;-2.768;2023-12-20T05:24:29;8.30;83.10
72814;DHT22;60945;48.516;-2.768;2023-12-20T05:26:55;8.30;82.80
72814;DHT22;60945;48.516;-2.768;2023-12-20T05:29:20;8.50;82.60
72814;DHT22;60945;48.516;-2.768;2023-12-20T05:31:46;8.60;82.40
72814;DHT22;60945;48.516;-2.768;2023-12-20T05:34:11;8.60;82.60
72814;DHT22;60945;48.516;-2.768;2023-12-20T05:36:37;8.60;82.90
72814;DHT22;60945;48.516;-2.768;2023-12-20T05:39:04;8.60;82.90
72814;DHT22;60945;48.516;-2.768;2023-12-20T05:41:30;8.60;82.90
72814;DHT22;60945;48.516;-2.768;2023-12-20T05:43:56;8.60;83.30
72814;DHT22;60945;48.516;-2.768;2023-12-20T05:46:25;8.60;82.90
72814;DHT22;60945;48.516;-2.768;2023-12-20T05:48:51;8.60;82.80
72814;DHT22;60945;48.516;-2.768;2023-12-20T05:51:17;8.50;83.50
72814;DHT22;60945;48.516;-2.768;2023-12-20T05:53:44;8.50;83.50
72814;DHT22;60945;48.516;-2.768;2023-12-20T05:56:10;8.60;83.80
72814;DHT22;60945;48.516;-2.768;2023-12-20T05:58:36;8.60;83.10
72814;DHT22;60945;48.516;-2.768;2023-12-20T06:01:05;8.60;82.90
72814;DHT22;60945;48.516;-2.768;2023-12-20T06:03:30;8.60;83.40
72814;DHT22;60945;48.516;-2.768;2023-12-20T06:05:56;8.60;83.40
72814;DHT22;60945;48.516;-2.768;2023-12-20T06:08:22;8.70;82.90
72814;DHT22;60945;48.516;-2.768;2023-12-20T06:10:48;8.70;82.80
72814;DHT22;60945;48.516;-2.768;2023-12-20T06:13:14;8.60;82.90
72814;DHT22;60945;48.516;-2.768;2023-12-20T06:15:40;8.70;82.30
72814;DHT22;60945;48.516;-2.768;2023-12-20T06:18:06;8.50;82.50
72814;DHT22;60945;48.516;-2.768;2023-12-20T06:20:32;8.50;83.10
72814;DHT22;60945;48.516;-2.768;2023-12-20T06:22:58;8.40;83.20
72814;DHT22;60945;48.516;-2.768;2023-12-20T06:25:24;8.30;83.40
72814;DHT22;60945;48.516;-2.768;2023-12-20T06:27:49;8.20;83.80
72814;DHT22;60945;48.516;-2.768;2023-12-20T06:30:16;8.20;84.10
72814;DHT22;60945;48.516;-2.768;2023-12-20T06:32:41;8.30;83.80
72814;DHT22;60945;48.516;-2.768;2023-12-20T06:35:09;8.30;83.70
72814;DHT22;60945;48.516;-2.768;2023-12-20T06:37:34;8.20;83.90
72814;DHT22;60945;48.516;-2.768;2023-12-20T06:40:00;8.20;84.20
72814;DHT22;60945;48.516;-2.768;2023-12-20T06:42:26;8.10;84.00
72814;DHT22;60945;48.516;-2.768;2023-12-20T06:44:52;8.20;84.00
72814;DHT22;60945;48.516;-2.768;2023-12-20T06:47:17;8.20;83.90
72814;DHT22;60945;48.516;-2.768;2023-12-20T06:49:43;8.20;83.90
72814;DHT22;60945;48.516;-2.768;2023-12-20T06:52:09;8.10;84.00
72814;DHT22;60945;48.516;-2.768;2023-12-20T06:54:34;8.20;83.90
72814;DHT22;60945;48.516;-2.768;2023-12-20T06:57:00;8.30;83.40
72814;DHT22;60945;48.516;-2.768;2023-12-20T06:59:28;8.50;82.80
72814;DHT22;60945;48.516;-2.768;2023-12-20T07:01:54;8.70;82.10
72814;DHT22;60945;48.516;-2.768;2023-12-20T07:04:20;8.80;81.10
72814;DHT22;60945;48.516;-2.768;2023-12-20T07:06:47;8.90;80.90
72814;DHT22;60945;48.516;-2.768;2023-12-20T07:09:13;9.00;81.00
72814;DHT22;60945;48.516;-2.768;2023-12-20T07:11:39;9.10;80.90
72814;DHT22;60945;48.516;-2.768;2023-12-20T07:14:05;9.00;80.80
72814;DHT22;60945;48.516;-2.768;2023-12-20T07:16:30;9.10;80.80
72814;DHT22;60945;48.516;-2.768;2023-12-20T07:18:56;9.00;80.90
72814;DHT22;60945;48.516;-2.768;2023-12-20T07:21:22;8.90;81.40
72814;DHT22;60945;48.516;-2.768;2023-12-20T07:23:48;8.80;81.70
72814;DHT22;60945;48.516;-2.768;2023-12-20T07:26:14;8.60;82.00
72814;DHT22;60945;48.516;-2.768;2023-12-20T07:28:40;8.60;82.70
72814;DHT22;60945;48.516;-2.768;2023-12-20T07:31:06;8.60;82.80
72814;DHT22;60945;48.516;-2.768;2023-12-20T07:33:34;8.70;82.50
72814;DHT22;60945;48.516;-2.768;2023-12-20T07:36:00;8.60;82.90
72814;DHT22;60945;48.516;-2.768;2023-12-20T07:38:26;8.50;83.10
72814;DHT22;60945;48.516;-2.768;2023-12-20T07:40:52;8.40;83.50
72814;DHT22;60945;48.516;-2.768;2023-12-20T07:43:17;8.40;83.60
72814;DHT22;60945;48.516;-2.768;2023-12-20T07:45:43;8.40;83.70
72814;DHT22;60945;48.516;-2.768;2023-12-20T07:48:08;8.40;83.70
72814;DHT22;60945;48.516;-2.768;2023-12-20T07:50:34;8.40;83.80
72814;DHT22;60945;48.516;-2.768;2023-12-20T07:53:00;8.60;83.10
72814;DHT22;60945;48.516;-2.768;2023-12-20T07:55:27;8.90;82.20
72814;DHT22;60945;48.516;-2.768;2023-12-20T07:57:52;8.90;81.60
72814;DHT22;60945;48.516;-2.768;2023-12-20T08:00:18;8.90;81.30
72814;DHT22;60945;48.516;-2.768;2023-12-20T08:02:44;9.10;81.20
72814;DHT22;60945;48.516;-2.768;2023-12-20T08:05:10;9.10;80.40
72814;DHT22;60945;48.516;-2.768;2023-12-20T08:07:36;9.00;80.40
72814;DHT22;60945;48.516;-2.768;2023-12-20T08:10:02;8.80;81.30
72814;DHT22;60945;48.516;-2.768;2023-12-20T08:12:27;8.70;82.10
72814;DHT22;60945;48.516;-2.768;2023-12-20T08:14:54;8.60;82.60
72814;DHT22;60945;48.516;-2.768;2023-12-20T08:17:19;8.50;82.90
72814;DHT22;60945;48.516;-2.768;2023-12-20T08:19:45;8.50;83.30
72814;DHT22;60945;48.516;-2.768;2023-12-20T08:22:11;8.40;84.30
72814;DHT22;60945;48.516;-2.768;2023-12-20T08:24:37;8.60;84.30
72814;DHT22;60945;48.516;-2.768;2023-12-20T08:27:04;8.80;83.90
72814;DHT22;60945;48.516;-2.768;2023-12-20T08:29:30;8.90;83.40
72814;DHT22;60945;48.516;-2.768;2023-12-20T08:31:56;9.00;82.80
72814;DHT22;60945;48.516;-2.768;2023-12-20T08:34:22;9.20;82.60
72814;DHT22;60945;48.516;-2.768;2023-12-20T08:36:50;9.20;82.30
72814;DHT22;60945;48.516;-2.768;2023-12-20T08:39:16;9.40;82.00
72814;DHT22;60945;48.516;-2.768;2023-12-20T08:41:42;9.50;81.70
72814;DHT22;60945;48.516;-2.768;2023-12-20T08:44:08;9.60;81.00
72814;DHT22;60945;48.516;-2.768;2023-12-20T08:46:34;9.60;80.40
72814;DHT22;60945;48.516;-2.768;2023-12-20T08:49:01;9.40;81.20
72814;DHT22;60945;48.516;-2.768;2023-12-20T08:51:27;9.50;81.30
72814;DHT22;60945;48.516;-2.768;2023-12-20T08:53:53;9.60;81.30
72814;DHT22;60945;48.516;-2.768;2023-12-20T08:56:19;9.50;81.10
72814;DHT22;60945;48.516;-2.768;2023-12-20T08:58:46;9.40;81.90
72814;DHT22;60945;48.516;-2.768;2023-12-20T09:01:12;9.30;82.50
72814;DHT22;60945;48.516;-2.768;2023-12-20T09:03:38;9.30;82.30
72814;DHT22;60945;48.516;-2.768;2023-12-20T09:06:04;9.50;82.40
72814;DHT22;60945;48.516;-2.768;2023-12-20T09:08:30;9.90;81.40
72814;DHT22;60945;48.516;-2.768;2023-12-20T09:10:56;10.20;80.60
72814;DHT22;60945;48.516;-2.768;2023-12-20T09:13:22;10.40;79.40
72814;DHT22;60945;48.516;-2.768;2023-12-20T09:15:56;10.30;79.10
72814;DHT22;60945;48.516;-2.768;2023-12-20T09:18:22;10.10;79.40
72814;DHT22;60945;48.516;-2.768;2023-12-20T09:20:47;9.80;80.60
72814;DHT22;60945;48.516;-2.768;2023-12-20T09:23:13;9.80;81.20
72814;DHT22;60945;48.516;-2.768;2023-12-20T09:25:38;9.80;81.40
72814;DHT22;60945;48.516;-2.768;2023-12-20T09:28:04;9.80;81.40
72814;DHT22;60945;48.516;-2.768;2023-12-20T09:30:30;9.80;81.40
72814;DHT22;60945;48.516;-2.768;2023-12-20T09:32:57;9.80;81.90
72814;DHT22;60945;48.516;-2.768;2023-12-20T09:35:23;9.70;82.10
72814;DHT22;60945;48.516;-2.768;2023-12-20T09:37:49;9.70;82.60
72814;DHT22;60945;48.516;-2.768;2023-12-20T09:40:19;9.70;82.90
72814;DHT22;60945;48.516;-2.768;2023-12-20T09:42:54;10.00;82.90
72814;DHT22;60945;48.516;-2.768;2023-12-20T09:45:21;10.40;81.20
72814;DHT22;60945;48.516;-2.768;2023-12-20T09:47:51;10.70;80.30
72814;DHT22;60945;48.516;-2.768;2023-12-20T09:50:19;11.00;79.00
72814;DHT22;60945;48.516;-2.768;2023-12-20T09:52:49;11.10;78.10
72814;DHT22;60945;48.516;-2.768;2023-12-20T09:55:17;11.20;78.20
72814;DHT22;60945;48.516;-2.768;2023-12-20T09:57:44;11.30;78.20
72814;DHT22;60945;48.516;-2.768;2023-12-20T10:00:11;11.40;77.80
72814;DHT22;60945;48.516;-2.768;2023-12-20T10:02:38;11.40;77.60
72814;DHT22;60945;48.516;-2.768;2023-12-20T10:05:08;11.30;77.40
72814;DHT22;60945;48.516;-2.768;2023-12-20T10:07:37;11.00;78.80
72814;DHT22;60945;48.516;-2.768;2023-12-20T10:10:04;10.80;79.70
72814;DHT22;60945;48.516;-2.768;2023-12-20T10:12:30;10.70;80.30
72814;DHT22;60945;48.516;-2.768;2023-12-20T10:14:57;10.70;80.80
72814;DHT22;60945;48.516;-2.768;2023-12-20T10:17:23;10.90;80.40
72814;DHT22;60945;48.516;-2.768;2023-12-20T10:19:49;10.90;80.30
72814;DHT22;60945;48.516;-2.768;2023-12-20T10:22:15;10.90;80.70
72814;DHT22;60945;48.516;-2.768;2023-12-20T10:24:40;11.10;80.40
72814;DHT22;60945;48.516;-2.768;2023-12-20T10:27:08;11.10;79.80
72814;DHT22;60945;48.516;-2.768;2023-12-20T10:29:35;11.20;79.60
72814;DHT22;60945;48.516;-2.768;2023-12-20T10:32:24;11.30;79.20
72814;DHT22;60945;48.516;-2.768;2023-12-20T10:34:50;11.30;78.40
72814;DHT22;60945;48.516;-2.768;2023-12-20T10:37:16;11.30;78.30
72814;DHT22;60945;48.516;-2.768;2023-12-20T10:39:43;11.20;79.00
72814;DHT22;60945;48.516;-2.768;2023-12-20T10:42:11;11.10;79.00
72814;DHT22;60945;48.516;-2.768;2023-12-20T10:44:37;11.10;79.30
72814;DHT22;60945;48.516;-2.768;2023-12-20T10:47:04;11.50;78.00
72814;DHT22;60945;48.516;-2.768;2023-12-20T10:49:31;12.00;76.90
72814;DHT22;60945;48.516;-2.768;2023-12-20T10:51:59;12.10;76.40
72814;DHT22;60945;48.516;-2.768;2023-12-20T10:54:28;12.20;76.10
72814;DHT22;60945;48.516;-2.768;2023-12-20T10:56:54;12.20;76.10
72814;DHT22;60945;48.516;-2.768;2023-12-20T10:59:23;12.20;76.40
72814;DHT22;60945;48.516;-2.768;2023-12-20T11:01:50;11.80;77.90
72814;DHT22;60945;48.516;-2.768;2023-12-20T11:04:23;11.70;78.60
72814;DHT22;60945;48.516;-2.768;2023-12-20T11:06:58;12.10;77.50
72814;DHT22;60945;48.516;-2.768;2023-12-20T11:09:36;12.30;77.30
72814;DHT22;60945;48.516;-2.768;2023-12-20T11:12:13;12.10;77.20
72814;DHT22;60945;48.516;-2.768;2023-12-20T11:14:50;12.00;78.30
72814;DHT22;60945;48.516;-2.768;2023-12-20T11:17:16;11.70;79.70
72814;DHT22;60945;48.516;-2.768;2023-12-20T11:22:20;12.10;80.20
72814;DHT22;60945;48.516;-2.768;2023-12-20T11:24:46;12.20;79.90
72814;DHT22;60945;48.516;-2.768;2023-12-20T11:27:13;12.10;80.10
72814;DHT22;60945;48.516;-2.768;2023-12-20T11:29:39;12.20;80.10
72814;DHT22;60945;48.516;-2.768;2023-12-20T11:34:51;12.50;79.50
72814;DHT22;60945;48.516;-2.768;2023-12-20T11:37:19;12.90;78.00
72814;DHT22;60945;48.516;-2.768;2023-12-20T11:39:45;13.20;76.50
72814;DHT22;60945;48.516;-2.768;2023-12-20T11:42:11;12.90;75.70
72814;DHT22;60945;48.516;-2.768;2023-12-20T11:44:37;12.90;76.60
72814;DHT22;60945;48.516;-2.768;2023-12-20T11:47:03;13.00;76.80
72814;DHT22;60945;48.516;-2.768;2023-12-20T11:49:29;12.80;77.40
72814;DHT22;60945;48.516;-2.768;2023-12-20T11:51:56;12.80;77.30
72814;DHT22;60945;48.516;-2.768;2023-12-20T11:54:22;12.90;77.60
72814;DHT22;60945;48.516;-2.768;2023-12-20T11:56:48;13.30;76.10
72814;DHT22;60945;48.516;-2.768;2023-12-20T11:59:15;13.60;74.50
72814;DHT22;60945;48.516;-2.768;2023-12-20T12:01:47;13.40;75.30
72814;DHT22;60945;48.516;-2.768;2023-12-20T12:04:13;13.40;75.40
72814;DHT22;60945;48.516;-2.768;2023-12-20T12:06:39;13.70;74.40
72814;DHT22;60945;48.516;-2.768;2023-12-20T12:09:05;14.10;73.50
72814;DHT22;60945;48.516;-2.768;2023-12-20T12:11:30;14.30;72.70
72814;DHT22;60945;48.516;-2.768;2023-12-20T12:13:56;14.50;71.20
72814;DHT22;60945;48.516;-2.768;2023-12-20T12:16:22;14.50;71.20
72814;DHT22;60945;48.516;-2.768;2023-12-20T12:18:56;14.30;72.90
72814;DHT22;60945;48.516;-2.768;2023-12-20T12:21:22;13.80;73.70
72814;DHT22;60945;48.516;-2.768;2023-12-20T12:23:48;13.90;74.30
72814;DHT22;60945;48.516;-2.768;2023-12-20T12:26:13;14.10;74.10
72814;DHT22;60945;48.516;-2.768;2023-12-20T12:28:42;14.00;74.30
72814;DHT22;60945;48.516;-2.768;2023-12-20T12:31:13;13.80;74.10
72814;DHT22;60945;48.516;-2.768;2023-12-20T12:33:40;13.60;75.00
72814;DHT22;60945;48.516;-2.768;2023-12-20T12:36:07;13.40;75.30
72814;DHT22;60945;48.516;-2.768;2023-12-20T12:38:33;13.40;75.30
72814;DHT22;60945;48.516;-2.768;2023-12-20T12:41:00;13.40;74.40
72814;DHT22;60945;48.516;-2.768;2023-12-20T12:43:26;13.40;75.10
72814;DHT22;60945;48.516;-2.768;2023-12-20T12:45:52;13.50;74.10
72814;DHT22;60945;48.516;-2.768;2023-12-20T12:48:18;13.80;72.60
72814;DHT22;60945;48.516;-2.768;2023-12-20T12:50:45;14.20;72.30
72814;DHT22;60945;48.516;-2.768;2023-12-20T12:53:10;14.20;71.00
72814;DHT22;60945;48.516;-2.768;2023-12-20T12:55:36;13.70;71.90
72814;DHT22;60945;48.516;-2.768;2023-12-20T12:58:02;13.70;72.80
72814;DHT22;60945;48.516;-2.768;2023-12-20T13:00:27;13.60;73.60
72814;DHT22;60945;48.516;-2.768;2023-12-20T13:02:53;14.30;71.80
72814;DHT22;60945;48.516;-2.768;2023-12-20T13:05:19;14.30;71.10
72814;DHT22;60945;48.516;-2.768;2023-12-20T13:07:44;14.10;72.10
72814;DHT22;60945;48.516;-2.768;2023-12-20T13:10:13;14.20;71.80
72814;DHT22;60945;48.516;-2.768;2023-12-20T13:12:42;14.30;71.30
72814;DHT22;60945;48.516;-2.768;2023-12-20T13:15:07;14.20;71.20
72814;DHT22;60945;48.516;-2.768;2023-12-20T13:17:34;14.10;72.20
72814;DHT22;60945;48.516;-2.768;2023-12-20T13:20:00;14.40;71.90
72814;DHT22;60945;48.516;-2.768;2023-12-20T13:22:25;14.10;71.90
72814;DHT22;60945;48.516;-2.768;2023-12-20T13:24:51;13.80;73.20
72814;DHT22;60945;48.516;-2.768;2023-12-20T13:27:16;13.30;75.40
72814;DHT22;60945;48.516;-2.768;2023-12-20T13:29:42;13.30;77.00
72814;DHT22;60945;48.516;-2.768;2023-12-20T13:32:07;13.70;76.00
72814;DHT22;60945;48.516;-2.768;2023-12-20T13:34:33;13.80;75.30
72814;DHT22;60945;48.516;-2.768;2023-12-20T13:36:59;13.90;73.70
72814;DHT22;60945;48.516;-2.768;2023-12-20T13:39:24;13.80;74.40
72814;DHT22;60945;48.516;-2.768;2023-12-20T13:41:50;14.00;73.70
72814;DHT22;60945;48.516;-2.768;2023-12-20T13:44:15;13.90;73.60
72814;DHT22;60945;48.516;-2.768;2023-12-20T13:46:41;13.90;73.30
72814;DHT22;60945;48.516;-2.768;2023-12-20T13:49:07;13.80;74.20
72814;DHT22;60945;48.516;-2.768;2023-12-20T13:51:33;13.80;73.40
72814;DHT22;60945;48.516;-2.768;2023-12-20T13:53:58;14.00;73.10
72814;DHT22;60945;48.516;-2.768;2023-12-20T13:56:25;14.00;73.30
72814;DHT22;60945;48.516;-2.768;2023-12-20T13:58:50;14.10;72.70
72814;DHT22;60945;48.516;-2.768;2023-12-20T14:01:16;14.10;73.40
72814;DHT22;60945;48.516;-2.768;2023-12-20T14:03:42;13.80;75.30
72814;DHT22;60945;48.516;-2.768;2023-12-20T14:06:08;14.20;75.00
72814;DHT22;60945;48.516;-2.768;2023-12-20T14:08:34;14.50;73.30
72814;DHT22;60945;48.516;-2.768;2023-12-20T14:11:01;14.80;72.60
72814;DHT22;60945;48.516;-2.768;2023-12-20T14:13:29;15.10;70.90
72814;DHT22;60945;48.516;-2.768;2023-12-20T14:15:55;15.30;69.60
72814;DHT22;60945;48.516;-2.768;2023-12-20T14:18:20;15.30;69.50
72814;DHT22;60945;48.516;-2.768;2023-12-20T14:20:48;14.80;70.90
72814;DHT22;60945;48.516;-2.768;2023-12-20T14:23:13;14.50;71.90
72814;DHT22;60945;48.516;-2.768;2023-12-20T14:25:42;14.50;73.20
72814;DHT22;60945;48.516;-2.768;2023-12-20T14:28:08;14.10;74.70
72814;DHT22;60945;48.516;-2.768;2023-12-20T14:30:35;14.10;75.80
72814;DHT22;60945;48.516;-2.768;2023-12-20T14:33:02;13.70;77.10
72814;DHT22;60945;48.516;-2.768;2023-12-20T14:35:27;13.50;78.90
72814;DHT22;60945;48.516;-2.768;2023-12-20T14:37:53;13.30;79.90
72814;DHT22;60945;48.516;-2.768;2023-12-20T14:40:19;13.70;78.70
72814;DHT22;60945;48.516;-2.768;2023-12-20T14:42:45;13.70;77.80
72814;DHT22;60945;48.516;-2.768;2023-12-20T14:45:11;13.60;77.00
72814;DHT22;60945;48.516;-2.768;2023-12-20T14:47:38;13.40;78.00
72814;DHT22;60945;48.516;-2.768;2023-12-20T14:50:05;13.20;78.80
72814;DHT22;60945;48.516;-2.768;2023-12-20T14:52:32;13.20;79.80
72814;DHT22;60945;48.516;-2.768;2023-12-20T14:54:59;13.30;79.50
72814;DHT22;60945;48.516;-2.768;2023-12-20T14:57:25;13.30;79.80
72814;DHT22;60945;48.516;-2.768;2023-12-20T14:59:51;13.70;78.60
72814;DHT22;60945;48.516;-2.768;2023-12-20T15:02:17;13.80;77.70
72814;DHT22;60945;48.516;-2.768;2023-12-20T15:04:43;13.80;77.40
72814;DHT22;60945;48.516;-2.768;2023-12-20T15:07:08;13.80;77.40
72814;DHT22;60945;48.516;-2.768;2023-12-20T15:09:34;13.50;78.10
72814;DHT22;60945;48.516;-2.768;2023-12-20T15:12:00;13.30;78.10
72814;DHT22;60945;48.516;-2.768;2023-12-20T15:14:26;13.10;78.00
72814;DHT22;60945;48.516;-2.768;2023-12-20T15:16:53;13.10;78.70
72814;DHT22;60945;48.516;-2.768;2023-12-20T15:19:18;13.20;79.00
72814;DHT22;60945;48.516;-2.768;2023-12-20T15:21:44;13.10;79.00
72814;DHT22;60945;48.516;-2.768;2023-12-20T15:24:10;12.90;80.40